createdAt,value
2019-01-19T00:00:29.164Z,-0.76
2019-01-19T00:03:37.570Z,-0.51
2019-01-19T00:06:47.069Z,-0.46
2019-01-19T00:16:32.368Z,0.16
2019-01-19T00:19:41.891Z,-0.47
2019-01-19T00:23:10.677Z,-0.97
2019-01-19T00:26:41.860Z,-1.18
2019-01-19T00:29:46.798Z,-1.32
2019-01-19T00:36:01.026Z,-1.37
2019-01-19T00:39:10.546Z,-1.51
2019-01-19T00:42:19.960Z,-1.41
2019-01-19T00:45:34.873Z,-1.14
2019-01-19T00:48:47.359Z,-1.06
2019-01-19T00:51:56.758Z,-0.99
2019-01-19T00:55:25.489Z,-0.96
2019-01-19T00:58:47.814Z,-1.18
2019-01-19T01:02:16.565Z,-0.87
2019-01-19T01:05:25.450Z,-0.59
2019-01-19T01:08:33.697Z,-0.92
2019-01-19T01:11:43.119Z,-1.36
2019-01-19T01:14:52.533Z,-1.46
2019-01-19T01:18:01.965Z,-1.48
2019-01-19T01:21:11.848Z,-0.64
2019-01-19T01:24:21.246Z,0.29
2019-01-19T01:27:27.208Z,-0.77
2019-01-19T01:30:36.671Z,-1.46
2019-01-19T01:33:46.115Z,-1.54
2019-01-19T01:43:26.768Z,-1.14
2019-01-19T01:46:55.522Z,-1.05
2019-01-19T01:49:51.542Z,-0.68
2019-01-19T01:53:08.969Z,0.23
2019-01-19T01:56:31.542Z,-0.79
2019-01-19T01:59:41.060Z,-1.56
2019-01-19T02:05:56.711Z,-0.72
2019-01-19T02:12:27.226Z,1.22
2019-01-19T02:18:44.657Z,-0.15
2019-01-19T02:21:54.069Z,-0.87
2019-01-19T02:25:22.746Z,-0.59
2019-01-19T02:28:33.799Z,0.16
2019-01-19T02:31:43.193Z,-0.79
2019-01-19T02:41:21.745Z,-1.76
2019-01-19T02:44:31.214Z,-1.91
2019-01-19T02:47:40.654Z,-2.03
2019-01-19T02:50:59.531Z,-1.94
2019-01-19T02:54:27.115Z,-2.17
2019-01-19T02:57:36.521Z,-1.93
2019-01-19T03:00:19.669Z,-1.96
2019-01-19T03:03:29.248Z,-2.16
2019-01-19T03:06:58.093Z,-2.10
2019-01-19T03:10:26.854Z,-2.11
2019-01-19T03:16:43.553Z,-0.75
2019-01-19T03:20:12.280Z,-1.09
2019-01-19T03:23:21.703Z,-1.25
2019-01-19T03:26:50.454Z,-0.80
2019-01-19T03:29:59.847Z,-0.90
2019-01-19T03:33:09.328Z,-1.23
2019-01-19T03:36:18.758Z,-0.47
2019-01-19T03:39:28.975Z,0.41
2019-01-19T03:42:44.136Z,0.81
2019-01-19T03:46:13.872Z,-1.20
2019-01-19T03:49:42.633Z,-0.39
2019-01-19T03:53:11.938Z,-1.44
2019-01-19T03:56:21.508Z,-1.68
2019-01-19T03:59:57.925Z,-0.73
2019-01-19T04:03:07.337Z,0.14
2019-01-19T04:06:40.416Z,-0.13
2019-01-19T04:09:49.845Z,-0.35
2019-01-19T04:15:56.473Z,-1.25
2019-01-19T04:22:40.795Z,-0.91
2019-01-19T04:25:33.487Z,-0.89
2019-01-19T04:33:30.615Z,0.28
2019-01-19T04:41:26.480Z,0.36
2019-01-19T04:44:07.779Z,0.52
2019-01-19T04:46:38.982Z,0.62
2019-01-19T04:52:12.780Z,0.01
2019-01-19T05:01:08.528Z,-1.54
2019-01-19T05:03:59.223Z,-2.30
2019-01-19T05:06:30.784Z,-2.64
2019-01-19T05:09:13.135Z,-2.70
2019-01-19T05:12:03.792Z,-2.32
2019-01-19T05:23:47.105Z,-2.66
2019-01-19T05:26:56.810Z,-3.02
2019-01-19T05:29:49.815Z,-3.12
2019-01-19T05:35:45.140Z,-3.68
2019-01-19T05:41:25.250Z,-3.87
2019-01-19T05:52:44.541Z,-2.78
2019-01-19T05:55:16.944Z,-3.22
2019-01-19T05:57:48.347Z,-3.30
2019-01-19T06:08:53.665Z,-0.64
2019-01-19T06:18:39.294Z,0.00
2019-01-19T06:23:53.696Z,0.32
2019-01-19T06:33:02.960Z,-1.84
2019-01-19T06:35:46.407Z,-1.57
2019-01-19T06:38:37.228Z,-0.84
2019-01-19T06:41:36.349Z,0.11
2019-01-19T06:44:07.677Z,0.33
2019-01-19T06:50:40.002Z,0.55
2019-01-19T06:53:11.248Z,0.50
2019-01-19T06:55:42.622Z,0.41
2019-01-19T07:02:31.398Z,0.60
2019-01-19T07:05:39.654Z,-0.11
2019-01-19T07:08:10.940Z,-1.33
2019-01-19T07:10:42.185Z,-0.87
2019-01-19T07:17:05.982Z,-0.60
2019-01-19T07:19:37.185Z,-0.36
2019-01-19T07:23:10.275Z,-0.36
2019-01-19T07:29:35.415Z,0.07
2019-01-19T07:38:40.224Z,0.80
2019-01-19T07:41:11.461Z,1.17
2019-01-19T07:44:10.339Z,1.20
2019-01-19T07:58:13.082Z,-0.70
2019-01-19T08:01:12.383Z,0.14
2019-01-19T08:04:08.672Z,0.68
2019-01-19T08:06:39.908Z,1.30
2019-01-19T08:09:11.168Z,1.50
2019-01-19T08:17:54.928Z,2.68
2019-01-19T08:20:56.495Z,2.64
2019-01-19T08:23:28.125Z,3.04
2019-01-19T08:25:59.760Z,3.37
2019-01-19T08:28:31.384Z,3.38
2019-01-19T08:36:58.105Z,1.56
2019-01-19T08:39:29.516Z,1.30
2019-01-19T08:45:45.289Z,2.40
2019-01-19T08:48:47.326Z,3.03
2019-01-19T08:51:18.754Z,2.72
2019-01-19T08:53:49.994Z,3.16
2019-01-19T08:56:42.408Z,3.39
2019-01-19T08:59:13.946Z,2.84
2019-01-19T09:01:45.272Z,2.74
2019-01-19T09:04:16.648Z,2.94
2019-01-19T09:07:33.265Z,0.74
2019-01-19T09:10:16.075Z,2.71
2019-01-19T09:12:47.463Z,1.82
2019-01-19T09:15:19.352Z,2.09
2019-01-19T09:17:50.866Z,2.14
2019-01-19T09:20:22.734Z,2.31
2019-01-19T09:29:22.798Z,2.64
2019-01-19T09:34:47.636Z,2.70
2019-01-19T09:37:52.694Z,1.72
2019-01-19T09:43:06.351Z,2.87
2019-01-19T09:46:16.256Z,3.72
2019-01-19T09:49:06.895Z,3.71
2019-01-19T09:54:40.570Z,3.10
2019-01-19T09:57:11.775Z,2.93
2019-01-19T10:02:45.425Z,3.12
2019-01-19T10:05:35.964Z,3.53
2019-01-19T10:13:41.906Z,3.77
2019-01-19T10:16:13.450Z,4.23
2019-01-19T10:19:02.380Z,5.36
2019-01-19T10:24:18.628Z,4.86
2019-01-19T10:27:09.232Z,4.47
2019-01-19T10:35:45.624Z,4.09
2019-01-19T10:44:03.003Z,3.45
2019-01-19T10:46:34.208Z,5.08
2019-01-19T10:52:07.987Z,4.71
2019-01-19T10:54:58.568Z,3.93
2019-01-19T10:57:49.542Z,3.48
2019-01-19T11:03:25.204Z,3.67
2019-01-19T11:14:09.231Z,3.01
2019-01-19T11:16:40.447Z,2.87
2019-01-19T11:22:15.638Z,2.06
2019-01-19T11:25:22.499Z,3.05
2019-01-19T11:36:23.410Z,3.08
2019-01-19T11:41:40.337Z,2.69
2019-01-19T11:44:11.583Z,2.94
2019-01-19T11:46:42.810Z,2.80
2019-01-19T11:58:10.412Z,2.51
2019-01-19T12:04:05.736Z,2.84
2019-01-19T12:06:56.269Z,3.31
2019-01-19T12:12:29.691Z,3.40
2019-01-19T12:18:37.172Z,3.83
2019-01-19T12:23:50.572Z,2.53
2019-01-19T12:32:28.659Z,2.32
2019-01-19T12:37:45.143Z,3.12
2019-01-19T12:40:35.699Z,3.14
2019-01-19T12:43:26.558Z,2.64
2019-01-19T12:46:17.129Z,2.92
2019-01-19T12:49:07.727Z,2.62
2019-01-19T12:52:08.478Z,3.60
2019-01-19T12:54:42.018Z,3.81
2019-01-19T12:57:52.063Z,4.09
2019-01-19T13:00:42.981Z,3.54
2019-01-19T13:03:33.564Z,3.67
2019-01-19T13:07:02.427Z,3.17
2019-01-19T13:10:31.199Z,3.43
2019-01-19T13:13:45.525Z,4.07
2019-01-19T13:17:14.354Z,3.39
2019-01-19T13:20:50.309Z,3.67
2019-01-19T13:24:01.060Z,3.75
2019-01-19T13:27:21.208Z,3.47
2019-01-19T13:30:07.364Z,2.76
2019-01-19T13:36:24.279Z,2.49
2019-01-19T13:39:34.086Z,2.13
2019-01-19T13:43:02.920Z,2.03
2019-01-19T13:46:31.784Z,2.14
2019-01-19T13:50:00.576Z,2.18
2019-01-19T13:56:49.881Z,2.46
2019-01-19T14:00:04.026Z,2.28
2019-01-19T14:03:25.960Z,2.08
2019-01-19T14:06:49.439Z,1.81
2019-01-19T14:10:01.207Z,1.93
2019-01-19T14:13:30.152Z,1.91
2019-01-19T14:16:58.933Z,2.11
2019-01-19T14:20:27.451Z,2.46
2019-01-19T14:23:43.086Z,2.78
2019-01-19T14:26:53.360Z,2.13
2019-01-19T14:30:23.894Z,2.17
2019-01-19T14:33:52.784Z,1.88
2019-01-19T14:37:22.021Z,1.94
2019-01-19T14:44:08.311Z,1.28
2019-01-19T14:47:37.130Z,1.27
2019-01-19T14:51:06.033Z,1.27
2019-01-19T14:54:34.848Z,1.38
2019-01-19T14:58:03.753Z,1.39
2019-01-19T15:01:32.548Z,1.59
2019-01-19T15:04:46.519Z,1.74
2019-01-19T15:07:56.054Z,1.42
2019-01-19T15:11:25.019Z,1.73
2019-01-19T15:14:50.025Z,1.46
2019-01-19T15:18:02.498Z,1.27
2019-01-19T15:21:13.618Z,1.29
2019-01-19T15:24:37.404Z,1.30
2019-01-19T15:27:47.625Z,0.23
2019-01-19T15:31:16.522Z,1.11
2019-01-19T15:34:45.305Z,1.19
2019-01-19T15:38:18.806Z,1.18
2019-01-19T15:41:47.574Z,1.42
2019-01-19T15:45:16.342Z,1.13
2019-01-19T15:48:45.151Z,1.20
2019-01-19T15:52:13.920Z,1.32
2019-01-19T15:55:41.926Z,1.43
2019-01-19T15:58:51.779Z,1.30
2019-01-19T16:02:20.608Z,1.26
2019-01-19T16:05:23.250Z,1.20
2019-01-19T16:08:32.059Z,1.40
2019-01-19T16:11:43.711Z,1.49
2019-01-19T16:15:12.459Z,1.42
2019-01-19T16:18:36.122Z,1.55
2019-01-19T16:22:04.866Z,1.58
2019-01-19T16:28:46.052Z,1.57
2019-01-19T16:32:14.818Z,1.95
2019-01-19T16:35:43.579Z,2.12
2019-01-19T16:38:42.668Z,2.04
2019-01-19T16:42:11.520Z,1.79
2019-01-19T16:45:40.511Z,1.91
2019-01-19T16:48:50.221Z,1.76
2019-01-19T16:52:19.728Z,1.66
2019-01-19T16:55:49.018Z,1.75
2019-01-19T16:58:51.656Z,1.81
2019-01-19T17:02:02.648Z,1.65
2019-01-19T17:05:36.298Z,1.95
2019-01-19T17:08:47.924Z,1.62
2019-01-19T17:12:18.737Z,1.80
2019-01-19T17:15:47.793Z,1.77
2019-01-19T17:19:17.370Z,1.43
2019-01-19T17:22:46.340Z,1.39
2019-01-19T17:26:15.123Z,1.27
2019-01-19T17:29:45.596Z,1.47
2019-01-19T17:32:48.702Z,1.47
2019-01-19T17:35:58.642Z,1.17
2019-01-19T17:39:27.419Z,1.15
2019-01-19T17:42:56.749Z,1.23
2019-01-19T17:46:26.545Z,1.19
2019-01-19T17:49:55.422Z,1.29
2019-01-19T17:53:24.837Z,1.35
2019-01-19T17:56:40.471Z,1.29
2019-01-19T18:03:19.241Z,0.74
2019-01-19T18:06:47.991Z,1.05
2019-01-19T18:10:30.503Z,1.22
2019-01-19T18:13:59.271Z,1.38
2019-01-19T18:17:28.039Z,1.27
2019-01-19T18:20:56.809Z,1.35
2019-01-19T18:24:26.221Z,1.44
2019-01-19T18:27:55.855Z,1.59
2019-01-19T18:31:00.472Z,1.48
2019-01-19T18:34:19.703Z,1.12
2019-01-19T18:37:48.510Z,1.12
2019-01-19T18:41:17.829Z,1.27
2019-01-19T18:44:47.454Z,1.67
2019-01-19T18:51:23.647Z,1.15
2019-01-19T18:54:52.400Z,1.12
2019-01-19T19:01:37.273Z,0.87
2019-01-19T19:08:45.005Z,0.97
2019-01-19T19:11:40.992Z,0.85
2019-01-19T19:14:56.108Z,1.08
2019-01-19T19:21:47.961Z,0.77
2019-01-19T19:25:17.039Z,0.74
2019-01-19T19:28:44.531Z,0.81
2019-01-19T19:31:53.959Z,0.68
2019-01-19T19:35:23.624Z,0.88
2019-01-19T19:38:52.382Z,0.70
2019-01-19T19:42:21.148Z,1.03
2019-01-19T19:45:25.085Z,0.71
2019-01-19T19:48:34.943Z,0.95
2019-01-19T19:51:44.713Z,0.76
2019-01-19T19:54:50.338Z,0.84
2019-01-19T19:58:06.070Z,0.89
2019-01-19T20:00:56.691Z,1.18
2019-01-19T20:03:47.252Z,1.23
2019-01-19T20:06:37.869Z,1.55
2019-01-19T20:09:21.092Z,1.20
2019-01-19T20:15:14.207Z,1.70
2019-01-19T20:18:15.927Z,1.77
2019-01-19T20:34:34.749Z,2.32
2019-01-19T20:43:25.820Z,2.67
2019-01-19T20:46:16.377Z,2.62
2019-01-19T20:49:07.017Z,2.75
2019-01-19T20:55:00.862Z,2.67
2019-01-19T21:00:34.595Z,2.33
2019-01-19T21:11:57.852Z,0.39
2019-01-19T21:14:48.677Z,1.22
2019-01-19T21:20:24.153Z,2.05
2019-01-19T21:23:16.587Z,2.61
2019-01-19T21:26:07.175Z,2.43
2019-01-19T21:28:57.828Z,2.55
2019-01-19T21:31:48.396Z,2.25
2019-01-19T21:40:22.559Z,2.56
2019-01-19T21:42:56.185Z,2.49
2019-01-19T21:45:27.447Z,2.84
2019-01-19T21:48:37.117Z,3.02
2019-01-19T21:51:46.787Z,3.50
2019-01-19T21:54:37.401Z,2.77
2019-01-19T21:57:28.012Z,3.37
2019-01-19T22:00:18.762Z,3.36
2019-01-19T22:11:22.262Z,3.12
2019-01-19T22:14:12.867Z,2.21
2019-01-19T22:17:03.573Z,2.36
2019-01-19T22:19:34.836Z,1.65
2019-01-19T22:22:25.425Z,2.27
2019-01-19T22:25:16.312Z,2.93
2019-01-19T22:28:06.877Z,3.37
2019-01-19T22:30:57.487Z,3.62
2019-01-19T22:36:32.398Z,3.71
2019-01-19T22:39:14.256Z,3.47
2019-01-19T22:48:05.385Z,3.22
2019-01-19T22:50:58.117Z,3.04
2019-01-19T22:56:34.627Z,2.96
2019-01-19T22:59:29.009Z,2.93
2019-01-19T23:02:26.156Z,3.07
2019-01-19T23:08:28.246Z,3.07
2019-01-19T23:20:20.598Z,2.81
2019-01-19T23:23:05.965Z,2.81
2019-01-19T23:25:44.005Z,2.54
2019-01-19T23:28:16.568Z,2.57
2019-01-19T23:31:19.881Z,2.71
2019-01-19T23:36:58.716Z,2.73
2019-01-19T23:40:02.431Z,2.58
2019-01-19T23:42:36.753Z,2.57
2019-01-19T23:50:56.841Z,3.34
2019-01-19T23:56:18.740Z,3.36
2019-01-19T23:59:09.977Z,3.46
